Time;durP1;ratioP1;P1;durP2;ratioP2;P2;SDS_P1;SDS_P2;PMS_P1;PMS_P2;Temp;Humidity;BMP_temperature;BMP_pressure;BME280_temperature;BME280_humidity;BME280_pressure;Samples;Min_cycle;Max_cycle;Signal;HPM_P1;HPM_P2
2020/12/24 00:02:09;;;;;;;2.67;0.90;;;;;;;10.18;82.41;99794.44;5052313;28;20057;-76
2020/12/24 00:04:35;;;;;;;3.92;0.70;;;;;;;10.19;81.06;99788.25;5052560;28;20059;-76
2020/12/24 00:07:02;;;;;;;3.13;0.80;;;;;;;10.17;80.33;99772.41;5052492;28;20362;-82
2020/12/24 00:09:28;;;;;;;3.00;0.70;;;;;;;10.25;79.35;99766.72;5050684;28;20488;-76
2020/12/24 00:11:55;;;;;;;2.40;0.77;;;;;;;10.26;78.89;99771.06;5052018;28;20049;-78
2020/12/24 00:14:22;;;;;;;2.45;0.77;;;;;;;10.23;77.55;99767.78;5040845;28;20056;-76
2020/12/24 00:16:49;;;;;;;4.97;0.82;;;;;;;10.15;77.58;99755.78;5049702;28;20052;-81
2020/12/24 00:19:16;;;;;;;3.95;0.75;;;;;;;10.03;78.76;99753.81;5063123;28;20145;-82
2020/12/24 00:21:43;;;;;;;2.80;0.68;;;;;;;10.06;77.14;99766.88;5063367;28;20045;-79
2020/12/24 00:24:10;;;;;;;3.08;0.50;;;;;;;10.01;78.07;99782.13;5053164;28;20128;-77
2020/12/24 00:26:37;;;;;;;2.80;0.68;;;;;;;9.95;78.59;99771.88;5059686;28;20059;-79
2020/12/24 00:29:07;;;;;;;2.88;0.82;;;;;;;9.91;78.00;99767.72;5051309;28;20059;-78
2020/12/24 00:31:34;;;;;;;2.50;0.52;;;;;;;9.85;78.56;99784.75;5045609;28;20128;-76
2020/12/24 00:34:02;;;;;;;3.13;0.90;;;;;;;9.85;78.28;99783.88;5048334;28;20040;-76
2020/12/24 00:36:29;;;;;;;4.80;0.85;;;;;;;9.80;78.16;99780.63;5050003;28;20068;-78
2020/12/24 00:38:56;;;;;;;2.95;0.55;;;;;;;9.80;78.52;99792.06;5050297;28;20075;-76
2020/12/24 00:41:22;;;;;;;4.35;0.93;;;;;;;9.76;78.48;99768.50;5050533;28;20049;-78
2020/12/24 00:43:50;;;;;;;3.90;0.90;;;;;;;9.70;78.76;99766.22;5051099;28;20083;-79
2020/12/24 00:46:17;;;;;;;3.20;0.60;;;;;;;9.68;79.01;99774.22;5044413;28;20194;-81
2020/12/24 00:48:43;;;;;;;3.35;0.73;;;;;;;9.64;79.21;99775.31;5046695;28;20059;-77
2020/12/24 00:51:10;;;;;;;3.00;0.80;;;;;;;9.68;78.48;99776.84;5043078;28;20057;-75
2020/12/24 00:53:37;;;;;;;6.82;0.90;;;;;;;9.65;78.42;99784.94;5038190;28;20080;-77
2020/12/24 00:56:06;;;;;;;5.22;0.73;;;;;;;9.62;79.07;99808.03;5047500;28;20456;-78
2020/12/24 00:58:33;;;;;;;4.78;0.75;;;;;;;9.61;79.29;99799.25;5038520;28;20057;-77
2020/12/24 01:01:00;;;;;;;3.50;0.73;;;;;;;9.57;78.25;99804.81;5048388;28;20139;-81
2020/12/24 01:03:26;;;;;;;3.45;0.82;;;;;;;9.62;78.40;99803.59;5046548;28;20052;-79
2020/12/24 01:05:52;;;;;;;6.78;0.82;;;;;;;9.62;77.73;99797.47;5044574;28;20132;-77
2020/12/24 01:08:19;;;;;;;3.40;0.90;;;;;;;9.69;76.74;99798.88;5040367;28;20144;-77
2020/12/24 01:10:45;;;;;;;2.63;0.70;;;;;;;9.73;76.79;99790.69;5049121;28;20802;-76
2020/12/24 01:13:11;;;;;;;5.32;1.08;;;;;;;9.74;76.26;99794.19;5044422;28;20049;-77
2020/12/24 01:15:38;;;;;;;7.85;1.35;;;;;;;9.68;77.45;99794.50;5047191;28;20049;-80
2020/12/24 01:18:04;;;;;;;4.75;0.73;;;;;;;9.64;76.25;99811.47;5048096;28;20041;-78
2020/12/24 01:20:31;;;;;;;4.35;0.80;;;;;;;9.59;77.11;99811.72;5038186;28;20069;-77
2020/12/24 01:22:57;;;;;;;8.23;1.27;;;;;;;9.59;76.50;99793.22;5043876;28;20049;-78
2020/12/24 01:25:24;;;;;;;3.97;0.63;;;;;;;9.59;77.15;99798.50;5052704;28;20045;-79
2020/12/24 01:27:50;;;;;;;6.65;1.15;;;;;;;9.55;77.70;99791.66;5048617;28;20119;-78
2020/12/24 01:30:16;;;;;;;3.95;1.15;;;;;;;9.62;76.94;99797.47;5054587;28;20059;-78
2020/12/24 01:32:43;;;;;;;3.85;0.90;;;;;;;9.63;76.74;99794.75;5057919;28;20124;-81
2020/12/24 01:35:09;;;;;;;4.75;1.05;;;;;;;9.65;76.08;99797.31;5056875;28;20063;-80
2020/12/24 01:37:36;;;;;;;3.78;0.82;;;;;;;9.63;75.49;99804.47;5059874;28;20049;-79
2020/12/24 01:40:04;;;;;;;5.13;1.10;;;;;;;9.63;76.25;99813.25;5061979;28;20053;-78
2020/12/24 01:42:31;;;;;;;5.80;0.82;;;;;;;9.63;75.59;99812.38;5047353;28;20460;-75
2020/12/24 01:44:57;;;;;;;2.72;0.63;;;;;;;9.60;75.16;99804.66;5040458;28;20084;-75
2020/12/24 01:47:24;;;;;;;7.25;1.10;;;;;;;9.58;75.33;99794.16;5050516;28;20080;-78
2020/12/24 01:49:50;;;;;;;6.50;1.02;;;;;;;9.56;75.74;99809.22;5049315;28;20049;-77
2020/12/24 01:52:48;;;;;;;6.78;0.90;;;;;;;9.62;74.30;99806.25;5041506;28;20140;-79
2020/12/24 01:55:15;;;;;;;6.63;1.33;;;;;;;9.62;74.36;99808.03;5030774;28;20048;-75
2020/12/24 01:57:41;;;;;;;7.18;1.20;;;;;;;9.61;75.10;99807.19;5047093;28;20467;-81
2020/12/24 02:00:09;;;;;;;7.15;1.00;;;;;;;9.56;74.68;99803.09;5041901;28;20068;-79
2020/12/24 02:05:06;;;;;;;8.80;1.48;;;;;;;9.62;73.51;99810.69;4975993;28;20127;-82
2020/12/24 02:07:33;;;;;;;6.95;0.90;;;;;;;9.59;74.44;99787.06;4975659;28;20058;-81
2020/12/24 02:10:01;;;;;;;8.73;1.40;;;;;;;9.54;75.05;99774.09;4970202;29;20086;-80
2020/12/24 02:12:27;;;;;;;6.65;1.17;;;;;;;9.52;75.31;99783.03;4964445;28;20086;-80
2020/12/24 02:14:53;;;;;;;4.47;1.05;;;;;;;9.46;74.71;99778.91;4970114;29;20086;-80
2020/12/24 02:17:20;;;;;;;5.05;1.17;;;;;;;9.45;74.34;99780.69;4969146;28;20166;-80
2020/12/24 02:19:46;;;;;;;7.25;0.95;;;;;;;9.43;74.62;99782.59;4968583;29;20050;-83
2020/12/24 02:22:14;;;;;;;6.68;1.15;;;;;;;9.39;75.45;99799.53;4958587;29;20065;-83
2020/12/24 02:24:43;;;;;;;4.65;0.70;;;;;;;9.31;75.84;99788.47;4958814;28;20098;-83
2020/12/24 02:27:10;;;;;;;9.18;0.98;;;;;;;9.30;74.83;99772.72;4959698;29;20051;-83
2020/12/24 02:29:37;;;;;;;7.30;1.15;;;;;;;9.29;75.46;99771.00;4960299;29;20214;-82
2020/12/24 02:32:04;;;;;;;5.25;1.08;;;;;;;9.27;75.15;99780.81;4962024;28;20051;-86
2020/12/24 02:34:31;;;;;;;7.20;1.25;;;;;;;9.29;74.49;99778.91;4965338;29;20055;-82
2020/12/24 02:36:57;;;;;;;5.47;0.80;;;;;;;9.24;74.61;99768.63;4963849;29;20058;-83
2020/12/24 02:39:24;;;;;;;5.03;1.23;;;;;;;9.28;73.98;99753.47;4963134;29;20056;-82
2020/12/24 02:41:51;;;;;;;6.25;0.93;;;;;;;9.36;73.68;99762.69;4957269;29;20083;-82
2020/12/24 02:44:17;;;;;;;5.60;0.93;;;;;;;9.31;73.54;99770.00;4959689;28;20102;-83
2020/12/24 02:46:46;;;;;;;4.50;1.20;;;;;;;9.31;73.43;99759.41;4974549;29;20047;-82
2020/12/24 02:49:12;;;;;;;7.00;1.10;;;;;;;9.35;74.21;99762.75;4973206;28;20047;-80
2020/12/24 02:51:39;;;;;;;10.60;1.27;;;;;;;9.36;73.89;99757.41;4968766;28;20062;-81
2020/12/24 02:54:05;;;;;;;7.47;1.45;;;;;;;9.30;73.91;99743.66;4963684;29;20134;-82
2020/12/24 02:56:33;;;;;;;7.78;1.40;;;;;;;9.27;74.07;99744.69;4963643;28;20458;-84
2020/12/24 02:59:00;;;;;;;10.45;1.70;;;;;;;9.28;73.99;99758.75;4963687;28;20130;-81
2020/12/24 03:01:26;;;;;;;6.75;1.15;;;;;;;9.27;73.55;99749.97;4963624;28;20059;-82
2020/12/24 03:03:52;;;;;;;9.13;1.42;;;;;;;9.24;74.32;99746.63;4952960;28;20376;-83
2020/12/24 03:06:18;;;;;;;7.70;0.90;;;;;;;9.18;74.91;99742.50;4949824;29;20446;-83
2020/12/24 03:08:45;;;;;;;4.80;1.00;;;;;;;9.14;75.32;99733.03;4957412;28;20110;-83
2020/12/24 03:11:11;;;;;;;8.48;1.60;;;;;;;9.11;75.53;99731.41;4944579;28;20119;-84
2020/12/24 03:13:38;;;;;;;7.63;1.02;;;;;;;9.10;75.77;99723.56;4953300;28;20522;-82
2020/12/24 03:16:04;;;;;;;6.57;0.90;;;;;;;9.13;75.64;99715.47;4957758;28;20056;-82
2020/12/24 03:18:31;;;;;;;6.68;1.45;;;;;;;9.13;75.82;99726.03;4951913;28;20066;-82
2020/12/24 03:20:57;;;;;;;5.22;1.10;;;;;;;9.14;75.55;99720.66;4955972;29;20053;-82
2020/12/24 03:23:23;;;;;;;6.88;1.38;;;;;;;9.19;76.26;99736.28;4955438;28;20054;-82
2020/12/24 03:25:50;;;;;;;8.93;1.15;;;;;;;9.24;75.20;99728.13;4950147;28;20055;-82
2020/12/24 03:28:16;;;;;;;5.15;1.10;;;;;;;9.18;75.92;99731.94;4948499;28;20044;-82
2020/12/24 03:30:42;;;;;;;10.05;1.38;;;;;;;9.09;75.85;99735.91;4946398;28;20074;-84
2020/12/24 03:33:09;;;;;;;6.15;1.13;;;;;;;9.03;75.94;99735.38;4950478;28;20145;-82
2020/12/24 03:35:35;;;;;;;8.23;1.38;;;;;;;9.02;75.39;99728.38;4947255;28;20135;-83
2020/12/24 03:38:01;;;;;;;5.63;1.20;;;;;;;9.02;74.60;99744.22;4952868;28;20459;-81
2020/12/24 03:40:28;;;;;;;7.88;1.17;;;;;;;8.99;75.14;99739.94;4945288;29;20059;-82
2020/12/24 03:42:54;;;;;;;4.40;1.05;;;;;;;9.05;73.79;99737.00;4950552;28;20063;-82
2020/12/24 03:45:21;;;;;;;9.27;1.17;;;;;;;9.00;74.07;99735.50;4956269;28;20051;-82
2020/12/24 03:47:48;;;;;;;4.93;1.15;;;;;;;8.96;74.16;99734.84;4962694;28;20075;-83
2020/12/24 03:50:32;;;;;;;9.35;1.38;;;;;;;8.93;73.80;99728.84;4957260;28;20410;-83
2020/12/24 03:52:59;;;;;;;11.18;1.80;;;;;;;8.92;73.20;99727.16;4958708;28;20110;-81
2020/12/24 03:55:25;;;;;;;13.32;1.73;;;;;;;8.95;72.79;99727.00;4966522;29;20506;-80
2020/12/24 03:57:51;;;;;;;6.47;1.20;;;;;;;8.88;73.21;99720.31;4961322;28;20051;-81
2020/12/24 04:00:18;;;;;;;8.23;1.48;;;;;;;8.85;73.03;99710.75;4958708;28;20082;-82
2020/12/24 04:02:44;;;;;;;9.35;1.13;;;;;;;8.77;73.82;99708.50;4959560;28;20047;-83
2020/12/24 04:05:10;;;;;;;12.43;1.60;;;;;;;8.72;74.02;99705.22;4959851;28;20487;-83
2020/12/24 04:07:37;;;;;;;9.52;1.15;;;;;;;8.62;74.64;99693.44;4956705;28;20134;-82
2020/12/24 04:10:03;;;;;;;9.25;1.33;;;;;;;8.59;74.71;99695.38;4966427;29;20047;-80
2020/12/24 04:12:30;;;;;;;7.35;1.27;;;;;;;8.55;74.85;99697.31;4965031;28;20058;-81
2020/12/24 04:14:56;;;;;;;7.30;1.35;;;;;;;8.49;74.69;99684.44;4973030;28;20119;-80
2020/12/24 04:17:23;;;;;;;6.57;1.10;;;;;;;8.47;74.92;99682.81;4965753;28;20120;-80
2020/12/24 04:19:49;;;;;;;7.15;1.48;;;;;;;8.41;74.94;99684.81;4953371;28;20115;-81
2020/12/24 04:22:15;;;;;;;8.80;1.38;;;;;;;8.39;74.99;99685.81;4956561;28;20126;-83
2020/12/24 04:24:41;;;;;;;12.25;1.52;;;;;;;8.30;75.12;99684.44;4957018;28;20050;-80
2020/12/24 04:27:08;;;;;;;8.57;1.50;;;;;;;8.31;75.35;99690.59;4961164;29;20666;-84
2020/12/24 04:29:34;;;;;;;4.43;1.58;;;;;;;8.32;75.40;99692.31;4961176;28;20055;-82
2020/12/24 04:32:01;;;;;;;11.70;1.25;;;;;;;8.28;75.34;99688.09;4962813;28;20055;-81
2020/12/24 04:34:27;;;;;;;6.72;1.33;;;;;;;8.25;74.96;99688.22;4970429;29;20065;-80
2020/12/24 04:36:53;;;;;;;7.93;1.17;;;;;;;8.22;75.21;99678.69;4968067;28;20085;-80
2020/12/24 04:39:20;;;;;;;10.75;1.40;;;;;;;8.22;75.29;99683.94;4967012;28;20154;-80
2020/12/24 04:41:47;;;;;;;7.80;1.38;;;;;;;8.20;75.35;99684.94;4950179;29;20054;-80
2020/12/24 04:44:15;;;;;;;8.00;1.65;;;;;;;8.18;75.60;99671.88;4957290;28;20051;-81
2020/12/24 04:46:42;;;;;;;4.25;0.80;;;;;;;8.21;75.37;99669.06;4951131;29;20130;-82
2020/12/24 04:49:10;;;;;;;10.80;1.40;;;;;;;8.21;75.45;99665.56;4939665;29;20048;-83
2020/12/24 04:51:37;;;;;;;7.53;1.25;;;;;;;8.25;74.18;99662.72;4950332;28;20039;-82
2020/12/24 04:54:03;;;;;;;9.38;1.27;;;;;;;8.24;74.08;99663.63;4947550;29;20052;-82
2020/12/24 04:56:29;;;;;;;7.32;1.25;;;;;;;8.22;73.93;99649.66;4940657;28;20077;-79
2020/12/24 04:58:58;;;;;;;9.27;1.33;;;;;;;8.26;74.29;99656.50;4951254;29;20397;-82
2020/12/24 05:01:25;;;;;;;9.75;1.60;;;;;;;8.34;73.96;99651.72;4947506;28;20058;-82
2020/12/24 05:03:54;;;;;;;7.45;1.33;;;;;;;8.37;73.35;99662.13;4956474;28;20467;-81
2020/12/24 05:06:21;;;;;;;7.47;1.65;;;;;;;8.41;73.82;99654.91;4944786;28;20059;-82
2020/12/24 05:08:56;;;;;;;5.85;1.00;;;;;;;8.43;73.55;99658.34;4953479;28;20102;-82
2020/12/24 05:11:26;;;;;;;8.07;1.08;;;;;;;8.44;73.60;99650.34;4938599;29;20051;-82
2020/12/24 05:13:52;;;;;;;9.32;1.77;;;;;;;8.42;73.62;99644.31;4944022;28;20055;-81
2020/12/24 05:16:19;;;;;;;10.70;1.40;;;;;;;8.47;73.52;99645.84;4956097;28;20340;-82
2020/12/24 05:18:46;;;;;;;7.80;1.25;;;;;;;8.51;73.47;99648.25;4957930;28;20078;-82
2020/12/24 05:21:29;;;;;;;8.60;1.60;;;;;;;8.53;73.70;99635.84;4939613;28;20075;-82
2020/12/24 05:23:57;;;;;;;7.40;1.38;;;;;;;8.52;73.67;99634.13;4946828;29;20047;-82
2020/12/24 05:26:23;;;;;;;10.48;1.27;;;;;;;8.54;73.28;99634.91;4942668;28;20051;-84
2020/12/24 05:28:50;;;;;;;6.30;1.27;;;;;;;8.57;73.27;99625.97;4952487;28;20201;-84
2020/12/24 05:31:34;;;;;;;6.75;1.23;;;;;;;8.54;73.39;99621.72;4945872;28;20058;-83
2020/12/24 05:34:00;;;;;;;7.35;1.30;;;;;;;8.59;73.85;99622.34;4941233;28;20574;-83
2020/12/24 05:36:26;;;;;;;7.45;1.27;;;;;;;8.66;73.27;99620.22;4954482;28;20047;-83
2020/12/24 05:38:53;;;;;;;7.65;1.17;;;;;;;8.74;73.09;99616.28;4952519;29;20138;-82
2020/12/24 05:41:26;;;;;;;6.78;1.50;;;;;;;8.72;73.63;99626.03;4949743;28;20055;-81
2020/12/24 05:43:59;;;;;;;5.80;1.15;;;;;;;8.70;74.56;99619.13;4959507;28;20057;-82
2020/12/24 05:46:27;;;;;;;10.95;1.67;;;;;;;8.68;75.37;99623.63;4954884;29;20055;-82
2020/12/24 05:48:55;;;;;;;11.05;2.03;;;;;;;8.64;76.57;99616.84;4945179;29;20066;-81
2020/12/24 05:51:21;;;;;;;6.47;1.40;;;;;;;8.62;76.11;99611.63;4954483;28;20054;-81
2020/12/24 05:53:48;;;;;;;9.55;1.45;;;;;;;8.52;77.30;99609.53;4959763;28;20049;-84
2020/12/24 05:56:23;;;;;;;9.75;1.73;;;;;;;8.48;77.96;99622.03;4953692;29;20053;-80
2020/12/24 05:58:51;;;;;;;8.70;1.30;;;;;;;8.39;78.76;99619.84;4952547;28;20058;-81
2020/12/24 06:01:18;;;;;;;11.00;1.50;;;;;;;8.33;78.88;99621.03;4957515;28;20146;-81
2020/12/24 06:03:56;;;;;;;6.18;1.67;;;;;;;8.30;80.26;99625.56;4942505;28;20120;-81
2020/12/24 06:06:47;;;;;;;7.95;1.35;;;;;;;8.27;81.22;99626.56;4943818;28;20057;-82
2020/12/24 06:09:21;;;;;;;13.82;1.92;;;;;;;8.20;81.25;99613.75;4958402;28;20066;-82
2020/12/24 06:11:52;;;;;;;13.38;1.30;;;;;;;8.13;82.27;99610.56;4953610;28;20051;-81
2020/12/24 06:14:27;;;;;;;10.38;1.52;;;;;;;8.05;82.72;99603.03;4945420;28;20054;-81
2020/12/24 06:16:54;;;;;;;9.05;1.52;;;;;;;8.01;83.22;99606.75;4953502;28;20101;-82
2020/12/24 06:19:21;;;;;;;10.80;1.20;;;;;;;7.93;83.39;99595.72;4950181;28;20507;-82
2020/12/24 06:21:47;;;;;;;10.55;1.85;;;;;;;8.01;83.88;99592.72;4950748;28;20051;-81
2020/12/24 06:24:14;;;;;;;13.20;1.75;;;;;;;7.97;83.68;99597.28;4950162;28;20054;-81
2020/12/24 06:26:45;;;;;;;12.75;2.05;;;;;;;7.94;82.94;99594.78;4948848;28;20055;-82
2020/12/24 06:29:15;;;;;;;9.40;1.10;;;;;;;7.84;83.63;99596.19;4955768;28;20666;-82
2020/12/24 06:31:45;;;;;;;6.23;1.33;;;;;;;7.74;84.56;99600.16;4950525;28;20051;-82
2020/12/24 06:34:30;;;;;;;10.68;1.65;;;;;;;7.73;85.24;99603.72;4950789;28;20057;-83
2020/12/24 06:37:11;;;;;;;7.57;1.33;;;;;;;7.71;85.25;99598.53;4949529;28;20055;-83
2020/12/24 06:39:42;;;;;;;6.75;1.20;;;;;;;7.75;85.63;99596.59;4954032;28;20093;-82
2020/12/24 06:42:46;;;;;;;10.50;1.73;;;;;;;7.79;85.17;99595.53;4953713;28;20062;-82
2020/12/24 06:45:32;;;;;;;8.20;1.65;;;;;;;7.76;85.59;99608.88;4947451;29;20069;-82
2020/12/24 06:48:10;;;;;;;6.53;1.38;;;;;;;7.80;85.32;99605.16;4957358;28;20105;-79
2020/12/24 06:50:37;;;;;;;10.65;1.20;;;;;;;7.80;85.71;99612.22;4953743;29;20075;-83
2020/12/24 06:53:31;;;;;;;12.15;1.60;;;;;;;7.72;86.65;99615.19;4959443;29;20107;-80
2020/12/24 06:56:22;;;;;;;7.45;1.50;;;;;;;7.65;86.73;99611.16;4956323;28;20047;-82
2020/12/24 06:58:58;;;;;;;8.60;1.70;;;;;;;7.62;87.02;99608.66;4968853;29;20059;-79
2020/12/24 07:01:26;;;;;;;9.60;1.10;;;;;;;7.55;87.11;99602.00;4965741;28;20087;-80
2020/12/24 07:03:55;;;;;;;8.50;1.73;;;;;;;7.51;87.54;99606.53;4965891;28;20043;-84
2020/12/24 07:06:40;;;;;;;7.80;1.42;;;;;;;7.46;88.14;99608.53;4963832;29;20106;-83
2020/12/24 07:09:11;;;;;;;12.68;1.60;;;;;;;7.45;88.92;99606.81;4961792;28;20063;-82
2020/12/24 07:11:44;;;;;;;6.95;1.05;;;;;;;7.42;88.57;99601.69;4963703;28;20043;-83
2020/12/24 07:14:26;;;;;;;7.50;1.65;;;;;;;7.45;88.63;99598.91;4960628;28;20119;-83
2020/12/24 07:16:54;;;;;;;6.97;1.05;;;;;;;7.45;88.75;99598.91;4961918;28;20055;-82
2020/12/24 07:19:22;;;;;;;8.75;1.42;;;;;;;7.49;88.68;99607.53;4968460;28;20130;-82
2020/12/24 07:21:49;;;;;;;10.23;1.42;;;;;;;7.46;88.88;99599.78;4973157;28;20114;-81
2020/12/24 07:24:25;;;;;;;4.85;1.25;;;;;;;7.45;89.16;99601.56;4973188;28;20055;-82
2020/12/24 07:26:55;;;;;;;10.52;1.60;;;;;;;7.46;89.36;99602.41;4974126;28;20123;-79
2020/12/24 07:29:22;;;;;;;7.38;1.25;;;;;;;7.46;89.62;99602.41;4958490;28;20083;-79
2020/12/24 07:31:50;;;;;;;7.18;1.60;;;;;;;7.48;89.76;99605.81;4949606;29;20086;-79
2020/12/24 07:34:22;;;;;;;10.60;1.38;;;;;;;7.53;90.26;99611.75;4982053;28;20051;-80
2020/12/24 07:36:49;;;;;;;6.80;1.17;;;;;;;7.54;90.12;99622.22;4968887;28;20047;-81
2020/12/24 07:39:15;;;;;;;6.85;1.17;;;;;;;7.52;90.22;99621.44;4973523;28;20055;-80
2020/12/24 07:41:42;;;;;;;10.48;1.58;;;;;;;7.46;90.78;99619.06;4972962;28;20062;-81
2020/12/24 07:44:10;;;;;;;8.05;1.40;;;;;;;7.45;90.45;99616.50;4972491;28;20047;-81
2020/12/24 07:46:38;;;;;;;10.93;1.38;;;;;;;7.36;92.36;99629.19;4968362;28;20057;-83
2020/12/24 07:49:05;;;;;;;8.68;1.70;;;;;;;7.33;93.35;99625.84;4962601;29;20067;-82
2020/12/24 07:51:32;;;;;;;10.20;1.63;;;;;;;7.29;93.52;99622.47;4966035;29;20384;-83
2020/12/24 07:54:11;;;;;;;6.45;1.20;;;;;;;7.24;93.63;99616.56;4970270;28;20066;-82
2020/12/24 07:56:44;;;;;;;10.98;1.45;;;;;;;7.26;94.36;99617.34;4961281;28;20138;-84
2020/12/24 07:59:11;;;;;;;7.65;1.23;;;;;;;7.27;94.69;99618.19;4964322;28;20078;-83
2020/12/24 08:01:37;;;;;;;11.32;1.80;;;;;;;7.35;95.68;99624.84;4963659;28;20134;-82
2020/12/24 08:04:05;;;;;;;14.65;1.85;;;;;;;7.42;96.88;99620.13;4951701;28;20047;-82
2020/12/24 08:06:33;;;;;;;14.65;2.17;;;;;;;7.45;97.17;99621.78;4958842;28;20054;-82
2020/12/24 08:09:16;;;;;;;6.57;1.10;;;;;;;7.49;96.97;99618.06;4952938;28;20066;-83
2020/12/24 08:11:52;;;;;;;10.85;2.00;;;;;;;7.44;96.02;99620.91;4962610;28;20051;-82
2020/12/24 08:14:22;;;;;;;10.10;2.03;;;;;;;7.44;96.13;99626.19;4958635;28;20051;-81
2020/12/24 08:16:50;;;;;;;14.88;2.05;;;;;;;7.39;95.83;99631.69;4959258;29;20142;-82
2020/12/24 08:19:36;;;;;;;9.55;1.48;;;;;;;7.36;96.09;99629.19;4960629;28;20145;-82
2020/12/24 08:22:26;;;;;;;8.43;1.42;;;;;;;7.33;95.25;99621.44;4973333;28;20418;-83
2020/12/24 08:24:54;;;;;;;7.18;1.50;;;;;;;7.28;95.56;99627.81;4963627;28;20039;-83
2020/12/24 08:27:21;;;;;;;10.23;1.88;;;;;;;7.20;95.40;99624.69;4965131;28;20149;-83
2020/12/24 08:29:48;;;;;;;6.15;1.15;;;;;;;7.16;95.52;99623.13;4965684;28;20055;-83
2020/12/24 08:32:16;;;;;;;6.70;1.00;;;;;;;7.12;95.65;99622.38;4962769;28;20151;-83
2020/12/24 08:34:42;;;;;;;8.40;1.00;;;;;;;7.14;95.22;99625.81;4957819;28;20047;-83
2020/12/24 08:37:09;;;;;;;6.55;0.82;;;;;;;7.05;95.34;99618.34;4961444;28;20138;-83
2020/12/24 08:39:35;;;;;;;4.70;1.00;;;;;;;7.00;95.66;99621.16;4955381;28;20108;-82
2020/12/24 08:42:03;;;;;;;5.07;0.82;;;;;;;6.99;95.85;99624.72;4969959;28;20131;-80
2020/12/24 08:44:30;;;;;;;5.40;1.02;;;;;;;7.02;95.49;99623.75;4964715;28;20081;-83
2020/12/24 08:47:00;;;;;;;8.27;0.80;;;;;;;6.98;95.87;99619.53;4963883;28;20057;-83
2020/12/24 08:49:28;;;;;;;;;;;;;;;6.96;95.74;99638.00;4963788;28;20527;-83
2020/12/24 08:52:34;;;;;;;4.10;0.73;;;;;;;6.99;96.22;99639.66;4967364;28;19933;-83
2020/12/24 08:55:02;;;;;;;4.85;0.65;;;;;;;7.07;94.97;99636.69;4933769;28;20082;-82
2020/12/24 08:57:30;;;;;;;3.63;0.82;;;;;;;7.13;94.59;99631.16;4979018;28;20094;-81
2020/12/24 08:59:58;;;;;;;2.67;0.77;;;;;;;7.12;94.41;99632.91;4962165;28;20051;-83
2020/12/24 09:02:29;;;;;;;5.15;0.93;;;;;;;7.24;93.54;99640.25;4941239;29;20051;-81
2020/12/24 09:04:57;;;;;;;2.40;0.80;;;;;;;7.31;92.52;99646.13;4954240;28;20138;-81
2020/12/24 09:07:37;;;;;;;2.13;0.52;;;;;;;7.32;93.04;99651.31;4953300;28;20055;-81
2020/12/24 09:10:09;;;;;;;2.70;0.90;;;;;;;7.29;93.69;99651.44;4955686;28;20043;-83
2020/12/24 09:12:38;;;;;;;1.33;0.50;;;;;;;7.31;93.64;99656.66;4961786;29;20067;-80
2020/12/24 09:15:07;;;;;;;4.45;0.60;;;;;;;7.31;93.19;99654.88;4957043;28;20043;-82
2020/12/24 09:17:35;;;;;;;4.07;1.05;;;;;;;7.32;92.81;99656.59;4949109;28;20142;-82
2020/12/24 09:20:11;;;;;;;3.50;0.65;;;;;;;7.34;92.27;99646.84;4939212;28;20064;-81
2020/12/24 09:22:52;;;;;;;1.33;0.63;;;;;;;7.43;91.92;99656.09;4956993;28;20130;-80
2020/12/24 09:25:46;;;;;;;2.03;0.68;;;;;;;7.47;91.30;99646.28;4955391;28;20075;-81
2020/12/24 09:28:27;;;;;;;3.63;0.70;;;;;;;7.51;90.86;99645.22;4954377;28;20714;-81
2020/12/24 09:30:58;;;;;;;4.43;0.70;;;;;;;7.55;91.27;99644.16;4940307;29;20584;-82
2020/12/24 09:33:26;;;;;;;2.20;0.63;;;;;;;7.64;89.38;99643.72;4958614;28;20057;-83
2020/12/24 09:35:52;;;;;;;3.35;0.80;;;;;;;7.61;89.84;99643.84;4955017;28;20057;-84
2020/12/24 09:38:21;;;;;;;1.55;0.57;;;;;;;7.60;90.01;99652.66;4958561;28;20118;-84
2020/12/24 09:40:48;;;;;;;2.55;0.50;;;;;;;7.58;89.83;99654.53;4949282;28;20043;-82
2020/12/24 09:43:15;;;;;;;2.53;0.70;;;;;;;7.57;89.65;99658.94;4968446;29;20110;-80
2020/12/24 09:45:41;;;;;;;5.65;0.70;;;;;;;7.55;89.38;99655.53;4970788;28;20106;-81
2020/12/24 09:48:08;;;;;;;1.85;0.68;;;;;;;7.66;87.57;99655.88;4957060;28;20138;-81
2020/12/24 09:50:34;;;;;;;1.02;0.40;;;;;;;7.69;87.86;99653.13;4958385;28;20138;-80
2020/12/24 09:53:02;;;;;;;2.88;0.80;;;;;;;7.72;88.62;99652.09;4964141;29;20039;-80
2020/12/24 09:55:29;;;;;;;3.08;0.73;;;;;;;7.77;89.16;99660.66;4969901;28;20069;-80
2020/12/24 09:57:56;;;;;;;1.75;0.63;;;;;;;7.89;87.80;99672.38;4958137;28;20082;-84
2020/12/24 10:00:24;;;;;;;1.42;0.52;;;;;;;7.86;87.66;99662.00;4954438;28;20104;-82
2020/12/24 10:02:50;;;;;;;2.75;0.60;;;;;;;7.90;87.44;99664.41;4959108;28;20065;-83
2020/12/24 10:05:17;;;;;;;1.27;0.40;;;;;;;7.98;86.69;99669.31;4953147;28;20054;-84
2020/12/24 10:07:50;;;;;;;3.25;0.60;;;;;;;8.05;85.61;99654.91;4952771;28;20047;-83
2020/12/24 10:10:16;;;;;;;2.95;0.60;;;;;;;8.22;86.17;99652.31;4953060;29;20062;-84
2020/12/24 10:12:43;;;;;;;3.22;0.63;;;;;;;8.32;87.20;99661.53;4953540;28;20137;-82
2020/12/24 10:15:09;;;;;;;2.85;0.80;;;;;;;8.48;89.03;99653.69;4953132;28;20455;-83
2020/12/24 10:17:35;;;;;;;1.75;0.80;;;;;;;8.64;88.11;99656.41;4950292;28;20047;-82
2020/12/24 10:20:02;;;;;;;1.42;0.50;;;;;;;8.70;85.81;99659.59;4959948;28;20061;-82
2020/12/24 10:22:28;;;;;;;1.40;0.57;;;;;;;8.75;88.41;99668.13;4983472;28;20047;-83
2020/12/24 10:24:55;;;;;;;3.75;1.02;;;;;;;8.76;86.77;99669.00;4963997;29;20071;-80
2020/12/24 10:27:21;;;;;;;1.35;0.73;;;;;;;8.77;87.92;99682.09;4978854;28;20114;-80
2020/12/24 10:29:47;;;;;;;3.88;0.93;;;;;;;8.83;83.22;99682.72;4957469;28;20185;-82
2020/12/24 10:32:14;;;;;;;3.45;1.48;;;;;;;8.76;83.22;99683.03;4957749;28;20053;-82
2020/12/24 10:34:41;;;;;;;3.33;1.58;;;;;;;8.67;84.42;99690.56;4955075;29;20074;-82
2020/12/24 10:37:07;;;;;;;3.42;1.10;;;;;;;8.56;84.10;99683.19;4955461;28;20061;-83
2020/12/24 10:39:33;;;;;;;2.45;0.65;;;;;;;8.51;84.92;99679.91;4953297;28;20059;-83
2020/12/24 10:42:00;;;;;;;1.95;0.70;;;;;;;8.51;84.28;99690.47;4949991;28;20114;-82
2020/12/24 10:44:30;;;;;;;;;;;;;;;8.55;84.57;99689.38;4961996;28;20051;-83
2020/12/24 10:46:58;;;;;;;2.33;0.82;;;;;;;8.53;84.16;99699.16;4962396;28;19926;-83
2020/12/24 10:49:25;;;;;;;2.95;0.70;;;;;;;8.59;84.27;99688.31;4954342;28;20559;-83
2020/12/24 10:51:52;;;;;;;1.38;0.63;;;;;;;8.65;83.27;99682.75;4956041;28;20047;-83
2020/12/24 10:54:19;;;;;;;2.30;0.95;;;;;;;8.58;84.98;99680.47;4959913;28;20047;-83
2020/12/24 10:56:47;;;;;;;3.40;0.85;;;;;;;8.63;84.76;99674.03;4959985;28;20061;-83
2020/12/24 10:59:14;;;;;;;2.60;1.08;;;;;;;8.71;84.58;99658.66;4962143;28;20107;-84
2020/12/24 11:01:48;;;;;;;3.10;1.00;;;;;;;8.81;83.26;99671.41;4963238;28;20047;-83
2020/12/24 11:04:16;;;;;;;1.85;0.80;;;;;;;8.89;83.13;99671.84;4962739;29;20061;-83
2020/12/24 11:06:43;;;;;;;2.58;0.80;;;;;;;8.96;82.84;99667.97;4963058;28;20110;-82
2020/12/24 11:09:11;;;;;;;0.85;0.50;;;;;;;8.99;81.25;99665.16;4966537;28;20119;-81
2020/12/24 11:11:38;;;;;;;2.10;0.63;;;;;;;8.92;83.12;99676.97;4960469;28;20051;-82
2020/12/24 11:14:05;;;;;;;3.13;0.80;;;;;;;8.87;83.77;99679.84;4962593;29;20071;-81
2020/12/24 11:16:33;;;;;;;1.98;0.80;;;;;;;8.91;84.05;99683.19;4968011;28;20055;-80
2020/12/24 11:18:59;;;;;;;0.82;0.50;;;;;;;8.98;84.62;99680.13;4969329;28;20099;-82
2020/12/24 11:21:32;;;;;;;3.63;0.90;;;;;;;9.04;82.57;99686.91;4971298;29;20051;-82
2020/12/24 11:24:06;;;;;;;2.25;0.75;;;;;;;9.03;82.40;99685.19;4969688;29;20266;-82
2020/12/24 11:26:40;;;;;;;1.10;0.90;;;;;;;8.99;82.66;99687.13;4962287;28;20111;-83
2020/12/24 11:29:08;;;;;;;1.73;0.60;;;;;;;8.99;81.07;99686.28;4960933;28;21518;-83
2020/12/24 11:31:38;;;;;;;2.45;1.05;;;;;;;9.10;79.69;99690.09;4960200;28;20051;-83
2020/12/24 11:34:06;;;;;;;1.05;0.70;;;;;;;9.12;79.17;99687.38;4959053;28;20048;-82
2020/12/24 11:36:32;;;;;;;2.65;0.63;;;;;;;9.19;79.37;99690.53;4965941;29;20055;-82
2020/12/24 11:38:59;;;;;;;1.25;0.75;;;;;;;9.22;79.57;99691.22;4974759;28;20066;-82
2020/12/24 11:41:28;;;;;;;3.25;1.00;;;;;;;9.23;79.41;99685.00;4968350;29;20078;-81
2020/12/24 11:43:56;;;;;;;1.00;0.63;;;;;;;9.27;79.61;99683.91;4965286;28;20028;-82
2020/12/24 11:46:25;;;;;;;2.10;0.75;;;;;;;9.40;79.08;99686.75;4962760;28;20118;-82
2020/12/24 11:48:51;;;;;;;1.63;0.73;;;;;;;9.54;78.45;99678.94;4963013;29;20251;-81
2020/12/24 11:51:19;;;;;;;1.52;0.50;;;;;;;9.62;78.45;99686.44;4955712;29;20115;-83
2020/12/24 11:53:48;;;;;;;1.52;0.95;;;;;;;9.74;76.35;99680.50;4963610;28;20373;-83